KOPF/OPF METAR and TAF weather

Enter ICAO airport designator
Station Type Date Time Source
KOPF METAR 2018/12/18 18:53 UTC NOAA

KOPF 181853Z 08005KT 10SM CLR 24/13 A3005 RMK AO2 SLP175 T02440133


Station Type Date Time Source
KOPF Decoded METAR 2018/12/18 18:53 UTC NOAA

MIAMI OPA LOCKA AIRPORT, FL, United States (KOPF) 25-54N 80-17W 16M
Dec 18, 2018 - 01:53 PM EST / 2018.12.18 1853 UTC
Wind: from the E (080 degrees) at 6 MPH (5 KT):0
Visibility: 10 mile(s):0
Sky conditions: clear
Temperature: 75.9 F (24.4 C)
Dew Point: 55.9 F (13.3 C)
Relative Humidity: 49%
Pressure (altimeter): 30.05 in. Hg (1017 hPa)
ob: KOPF 181853Z 08005KT 10SM CLR 24/13 A3005 RMK AO2 SLP175 T02440133
cycle: 19

Station Type Date Time Source
KOPF TAF 2018/12/18 18:30 UTC NOAA

TAF KOPF 181727Z 1818/1918 09005KT P6SM FEW250
FM182300 VRB03KT P6SM FEW030 SCT250
FM191500 07005KT P6SM SCT030 SCT050


Example: see airport list